Huvudsida
METAR-TAF:

METAR-TAF

Flygplatser :

Mostars internationella flygplats

Mostar, Bosnien och Hercegovina

latitud: 43-21N, longitud: 017-48E, höjd: 108 m

Aktuellt väderrapport

Denna rapport gjordes för 52 minuter sedan, klockan 14:00 UTC
Vind 10 kt från nordost, varierande mellan nord och ost/sydost
Temperatur 36°C
Fuktighet 29%
Tryck 1017 hPa
Sikt 10 km eller mer
Få moln på en höjd av 5000 ft

METAR: LQMO 261400Z 04010KT 350V120 9999 FEW050 36/15 Q1017

Tid: 16:52 (14:52 UTC)

Väderprognos

Denna rapport gjordes för 3 timmar och 52 minuter sedan, klockan 11:00 UTC
Prognos gäller från 26 kl. 12 UTC till 27 kl. 12 UTC
Vind 7 kt från nord/nordost
Sikt 10 km eller mer
Inga moln under 1 500 m eller inga cumulonimbus

TAF: LQMO 261100Z 2612/2712 02007KT CAVOK TX36/2613Z TN24/2703Z

Aktuella väderrapporter och prognoser från 4000 flygplatser (METAR- och TAF-rapporter).

De tillgängliga stationerna syns som gula och röda prickar på kartan.

För musen över prickarna för att se namnen på stationerna.

Klicka sedan för att få väderrapporter och prognoser.

För att ändra kartan: Klicka på de gröna knapparna med ett svart kors på för att zooma in; den gröna knappen med ett streck på för att zooma ut; eller på de gröna pilarna för angränsande kartor.


METAR-TAF: